createdAt,value
2018-05-25T00:00:55.250Z,100237.33
2018-05-25T00:03:21.278Z,100236.57
2018-05-25T00:05:47.302Z,100238.41
2018-05-25T00:08:13.303Z,100238.50
2018-05-25T00:10:39.306Z,100236.77
2018-05-25T00:13:05.290Z,100230.63
2018-05-25T00:15:31.316Z,100232.00
2018-05-25T00:17:57.319Z,100230.70
2018-05-25T00:20:23.324Z,100230.34
2018-05-25T00:22:49.332Z,100230.09
2018-05-25T00:25:15.343Z,100230.42
2018-05-25T00:27:41.329Z,100233.11
2018-05-25T00:30:07.379Z,100229.30
2018-05-25T00:32:33.377Z,100235.44
2018-05-25T00:34:59.442Z,100230.94
2018-05-25T00:37:25.442Z,100233.73
2018-05-25T00:39:51.475Z,100225.80
2018-05-25T00:42:17.473Z,100229.79
2018-05-25T00:44:43.476Z,100225.08
2018-05-25T00:47:09.480Z,100221.72
2018-05-25T00:49:35.490Z,100225.08
2018-05-25T00:52:01.523Z,100217.14
2018-05-25T00:54:27.524Z,100216.25
2018-05-25T00:56:53.523Z,100217.09
2018-05-25T00:59:19.511Z,100217.23
2018-05-25T01:01:45.523Z,100216.72
2018-05-25T01:04:11.544Z,100221.12
2018-05-25T01:06:37.552Z,100222.69
2018-05-25T01:09:03.606Z,100223.89
2018-05-25T01:11:29.637Z,100226.56
2018-05-25T01:13:55.670Z,100222.53
2018-05-25T01:16:21.685Z,100219.63
2018-05-25T01:18:47.702Z,100218.25
2018-05-25T01:21:13.707Z,100221.57
2018-05-25T01:23:39.688Z,100224.84
2018-05-25T01:26:05.697Z,100219.13
2018-05-25T01:28:31.711Z,100222.94
2018-05-25T01:30:57.737Z,100214.64
2018-05-25T01:33:23.736Z,100205.34
2018-05-25T01:35:49.760Z,100211.39
2018-05-25T01:38:15.748Z,100210.71
2018-05-25T01:40:41.777Z,100207.59
2018-05-25T01:45:40.258Z,100206.05
2018-05-25T01:48:06.282Z,100206.27
2018-05-25T01:50:32.281Z,100207.13
2018-05-25T01:52:58.265Z,100209.55
2018-05-25T01:55:24.237Z,100207.59
2018-05-25T01:57:50.218Z,100211.68
2018-05-25T02:00:16.232Z,100210.73
2018-05-25T02:02:42.232Z,100214.63
2018-05-25T02:05:08.267Z,100218.35
2018-05-25T02:07:34.248Z,100216.84
2018-05-25T02:10:00.241Z,100218.09
2018-05-25T02:12:26.258Z,100213.48
2018-05-25T02:14:52.298Z,100214.38
2018-05-25T02:17:18.291Z,100214.48
2018-05-25T02:19:44.303Z,100206.09
2018-05-25T02:22:10.289Z,100205.77
2018-05-25T02:24:36.280Z,100204.88
2018-05-25T02:27:02.263Z,100198.98
2018-05-25T02:29:28.293Z,100204.27
2018-05-25T02:31:54.296Z,100210.14
2018-05-25T02:34:20.309Z,100217.03
2018-05-25T02:36:46.317Z,100216.91
2018-05-25T02:39:12.326Z,100213.13
2018-05-25T02:41:38.347Z,100208.41
2018-05-25T02:44:04.366Z,100208.17
2018-05-25T02:46:30.372Z,100207.97
2018-05-25T02:48:56.372Z,100207.47
2018-05-25T02:51:22.387Z,100212.62
2018-05-25T02:53:48.403Z,100214.00
2018-05-25T02:56:14.437Z,100208.67
2018-05-25T02:58:40.441Z,100209.34
2018-05-25T03:01:06.440Z,100211.91
2018-05-25T03:03:32.447Z,100207.16
2018-05-25T03:05:58.445Z,100205.86
2018-05-25T03:08:24.467Z,100203.01
2018-05-25T03:10:50.467Z,100204.30
2018-05-25T03:13:16.463Z,100199.08
2018-05-25T03:15:42.458Z,100200.16
2018-05-25T03:18:08.463Z,100199.05
2018-05-25T03:20:34.450Z,100195.63
2018-05-25T03:23:00.454Z,100200.11
2018-05-25T03:25:26.468Z,100205.26
2018-05-25T03:27:52.517Z,100207.27
2018-05-25T03:30:18.542Z,100209.27
2018-05-25T03:32:44.574Z,100209.14
2018-05-25T03:35:10.587Z,100204.33
2018-05-25T03:37:36.612Z,100203.11
2018-05-25T03:40:02.608Z,100207.55
2018-05-25T03:42:28.627Z,100211.42
2018-05-25T03:44:54.639Z,100211.75
2018-05-25T03:47:20.671Z,100221.41
2018-05-25T03:49:46.690Z,100218.40
2018-05-25T03:52:12.706Z,100221.30
2018-05-25T03:54:38.721Z,100218.83
2018-05-25T03:57:04.724Z,100216.92
2018-05-25T03:59:30.701Z,100214.60
2018-05-25T04:01:56.699Z,100217.17
2018-05-25T04:04:22.719Z,100222.66
2018-05-25T04:06:48.724Z,100228.56
2018-05-25T04:09:14.730Z,100226.58
2018-05-25T04:11:40.755Z,100225.27
2018-05-25T04:14:06.742Z,100225.55
2018-05-25T04:16:32.833Z,100227.92
2018-05-25T04:18:58.831Z,100222.39
2018-05-25T04:21:24.842Z,100222.21
2018-05-25T04:23:50.865Z,100224.77
2018-05-25T04:26:16.872Z,100227.36
2018-05-25T04:28:42.888Z,100226.11
2018-05-25T04:31:08.888Z,100237.33
2018-05-25T04:33:34.917Z,100232.69
2018-05-25T04:36:00.908Z,100237.20
2018-05-25T04:38:26.915Z,100246.27
2018-05-25T04:40:52.915Z,100242.22
2018-05-25T04:43:18.984Z,100251.66
2018-05-25T04:45:45.008Z,100247.18
2018-05-25T04:48:11.006Z,100253.20
2018-05-25T04:50:37.011Z,100246.83
2018-05-25T04:53:03.057Z,100239.34
2018-05-25T04:55:29.077Z,100247.45
2018-05-25T04:57:55.112Z,100240.53
2018-05-25T05:00:21.158Z,100249.29
2018-05-25T05:02:47.168Z,100241.88
2018-05-25T05:05:13.165Z,100240.36
2018-05-25T05:07:39.159Z,100245.02
2018-05-25T05:10:05.173Z,100248.95
2018-05-25T05:12:31.203Z,100247.31
2018-05-25T05:14:57.236Z,100241.75
2018-05-25T05:17:23.300Z,100238.86
2018-05-25T05:19:49.343Z,100240.63
2018-05-25T05:22:15.379Z,100232.86
2018-05-25T05:24:41.389Z,100233.55
2018-05-25T05:27:07.408Z,100226.27
2018-05-25T05:29:33.418Z,100222.06
2018-05-25T05:31:59.478Z,100213.59
2018-05-25T05:34:25.498Z,100212.94
2018-05-25T05:36:51.533Z,100213.61
2018-05-25T05:39:17.584Z,100213.56
2018-05-25T05:41:43.580Z,100211.30
2018-05-25T05:44:09.611Z,100216.81
2018-05-25T05:46:35.604Z,100220.31
2018-05-25T05:49:01.651Z,100231.11
2018-05-25T05:51:27.667Z,100238.28
2018-05-25T05:53:53.695Z,100239.44
2018-05-25T05:56:19.710Z,100242.10
2018-05-25T05:58:45.732Z,100246.27
2018-05-25T06:01:11.730Z,100228.48
2018-05-25T06:03:37.752Z,100233.49
2018-05-25T06:06:03.771Z,100237.88
2018-05-25T06:08:29.832Z,100238.61
2018-05-25T06:10:55.858Z,100235.53
2018-05-25T06:13:21.893Z,100233.95
2018-05-25T06:15:47.908Z,100241.03
2018-05-25T06:18:13.994Z,100245.13
2018-05-25T06:20:39.998Z,100243.67
2018-05-25T06:23:06.003Z,100239.30
2018-05-25T06:25:32.025Z,100245.19
2018-05-25T06:27:58.036Z,100245.98
2018-05-25T06:30:24.063Z,100253.66
2018-05-25T06:32:50.069Z,100253.72
2018-05-25T06:35:16.145Z,100258.17
2018-05-25T06:37:42.325Z,100260.79
2018-05-25T06:40:08.374Z,100265.56
2018-05-25T06:42:34.385Z,100272.68
2018-05-25T06:45:00.388Z,100277.97
2018-05-25T06:47:26.396Z,100254.45
2018-05-25T06:49:52.387Z,100268.02
2018-05-25T06:52:18.422Z,100274.46
2018-05-25T06:54:44.428Z,100268.39
2018-05-25T06:57:10.447Z,100267.97
2018-05-25T06:59:36.482Z,100264.14
2018-05-25T07:02:02.495Z,100269.24
2018-05-25T07:04:28.525Z,100269.95
2018-05-25T07:06:54.509Z,100259.16
2018-05-25T07:09:20.525Z,100268.47
2018-05-25T07:11:46.531Z,100269.27
2018-05-25T07:14:12.552Z,100264.24
2018-05-25T07:16:38.537Z,100260.75
2018-05-25T07:19:04.555Z,100264.30
2018-05-25T07:21:30.537Z,100264.83
2018-05-25T07:23:56.553Z,100271.55
2018-05-25T07:26:22.538Z,100265.25
2018-05-25T07:28:49.101Z,100268.05
2018-05-25T07:31:15.130Z,100266.46
2018-05-25T07:33:41.148Z,100266.64
2018-05-25T07:36:07.149Z,100278.46
2018-05-25T07:38:33.134Z,100262.88
2018-05-25T07:40:59.140Z,100269.07
2018-05-25T07:43:25.208Z,100274.70
2018-05-25T07:45:51.251Z,100259.58
2018-05-25T07:48:17.275Z,100262.06
2018-05-25T07:50:43.289Z,100256.44
2018-05-25T07:53:09.284Z,100267.27
2018-05-25T07:55:35.297Z,100261.98
2018-05-25T07:58:01.296Z,100269.91
2018-05-25T08:00:27.302Z,100258.75
2018-05-25T08:02:53.347Z,100258.45
2018-05-25T08:05:19.361Z,100263.09
2018-05-25T08:07:45.376Z,100254.52
2018-05-25T08:10:11.392Z,100258.42
2018-05-25T08:12:37.403Z,100256.98
2018-05-25T08:15:03.468Z,100259.30
2018-05-25T08:17:29.477Z,100243.33
2018-05-25T08:19:55.495Z,100248.21
2018-05-25T08:22:21.496Z,100240.81
2018-05-25T08:24:47.562Z,100244.38
2018-05-25T08:27:13.582Z,100244.71
2018-05-25T08:29:39.637Z,100242.38
2018-05-25T08:32:05.670Z,100244.21
2018-05-25T08:34:31.677Z,100244.22
2018-05-25T08:36:57.656Z,100246.27
2018-05-25T08:39:23.689Z,100235.79
2018-05-25T08:41:49.715Z,100243.19
2018-05-25T08:44:15.728Z,100230.44
2018-05-25T08:46:41.748Z,100230.19
2018-05-25T08:49:07.745Z,100239.67
2018-05-25T08:51:33.744Z,100230.92
2018-05-25T08:53:59.767Z,100235.43
2018-05-25T08:56:25.760Z,100246.09
2018-05-25T08:58:51.764Z,100229.36
2018-05-25T09:01:17.807Z,100238.95
2018-05-25T09:03:43.817Z,100233.64
2018-05-25T09:06:09.844Z,100241.34
2018-05-25T09:08:35.897Z,100216.23
2018-05-25T09:11:01.879Z,100226.86
2018-05-25T09:13:27.881Z,100222.36
2018-05-25T09:15:53.899Z,100224.74
2018-05-25T09:18:19.908Z,100227.45
2018-05-25T09:20:45.924Z,100207.09
2018-05-25T09:23:11.924Z,100215.17
2018-05-25T09:25:37.993Z,100223.27
2018-05-25T09:28:04.023Z,100233.95
2018-05-25T09:30:30.042Z,100219.48
2018-05-25T09:32:56.059Z,100219.48
2018-05-25T09:35:22.106Z,100216.43
2018-05-25T09:37:48.098Z,100222.34
2018-05-25T09:40:14.121Z,100220.24
2018-05-25T09:42:40.131Z,100226.86
2018-05-25T09:45:06.175Z,100229.86
2018-05-25T09:47:32.200Z,100220.19
2018-05-25T09:49:58.244Z,100220.75
2018-05-25T09:52:24.296Z,100223.27
2018-05-25T09:54:50.320Z,100219.69
2018-05-25T09:57:16.363Z,100219.55
2018-05-25T09:59:42.395Z,100221.70
2018-05-25T10:02:08.410Z,100211.83
2018-05-25T10:04:34.416Z,100211.77
2018-05-25T10:07:00.452Z,100210.88
2018-05-25T10:09:26.471Z,100196.05
2018-05-25T10:11:52.495Z,100200.33
2018-05-25T10:14:18.535Z,100197.41
2018-05-25T10:16:44.534Z,100203.49
2018-05-25T10:19:10.548Z,100204.34
2018-05-25T10:21:36.569Z,100199.70
2018-05-25T10:24:02.571Z,100198.34
2018-05-25T10:26:28.612Z,100189.58
2018-05-25T10:28:54.607Z,100185.87
2018-05-25T10:31:20.596Z,100188.26
2018-05-25T10:33:46.620Z,100195.03
2018-05-25T10:36:12.646Z,100198.59
2018-05-25T10:38:38.648Z,100192.94
2018-05-25T10:41:04.684Z,100190.07
2018-05-25T10:43:30.657Z,100188.80
2018-05-25T10:45:56.649Z,100187.50
2018-05-25T10:48:22.620Z,100186.91
2018-05-25T10:50:48.566Z,100171.87
2018-05-25T10:53:14.550Z,100169.64
2018-05-25T10:55:40.523Z,100165.17
2018-05-25T10:58:06.475Z,100169.17
2018-05-25T11:00:32.433Z,100171.41
2018-05-25T11:02:58.387Z,100179.03
2018-05-25T11:05:24.330Z,100173.04
2018-05-25T11:07:50.328Z,100164.20
2018-05-25T11:10:16.291Z,100167.77
2018-05-25T11:12:42.262Z,100171.33
2018-05-25T11:15:08.235Z,100167.62
2018-05-25T11:17:34.206Z,100162.20
2018-05-25T11:20:00.188Z,100154.61
2018-05-25T11:22:26.168Z,100159.41
2018-05-25T11:24:52.109Z,100166.64
2018-05-25T11:27:18.081Z,100163.31
2018-05-25T11:29:44.048Z,100157.08
2018-05-25T11:32:10.017Z,100151.97
2018-05-25T11:34:35.978Z,100155.25
2018-05-25T11:37:01.982Z,100156.17
2018-05-25T11:39:27.976Z,100161.71
2018-05-25T11:41:53.929Z,100169.23
2018-05-25T11:44:19.881Z,100159.41
2018-05-25T11:46:45.858Z,100148.09
2018-05-25T11:49:11.820Z,100147.33
2018-05-25T11:51:37.780Z,100151.28
2018-05-25T11:54:03.746Z,100137.78
2018-05-25T11:56:29.722Z,100149.04
2018-05-25T11:58:55.765Z,100139.80
2018-05-25T12:01:21.722Z,100143.01
2018-05-25T12:03:47.696Z,100132.19
2018-05-25T12:06:13.638Z,100133.67
2018-05-25T12:08:39.629Z,100128.34
2018-05-25T12:11:05.590Z,100139.93
2018-05-25T12:13:31.541Z,100125.70
2018-05-25T12:15:57.500Z,100135.64
2018-05-25T12:18:23.474Z,100130.86
2018-05-25T12:20:49.458Z,100124.02
2018-05-25T12:23:15.467Z,100112.67
2018-05-25T12:25:41.462Z,100117.27
2018-05-25T12:28:07.464Z,100117.22
2018-05-25T12:30:33.426Z,100117.31
2018-05-25T12:32:59.406Z,100119.84
2018-05-25T12:35:25.394Z,100120.30
2018-05-25T12:37:51.352Z,100117.30
2018-05-25T12:40:17.307Z,100117.05
2018-05-25T12:42:43.297Z,100116.07
2018-05-25T12:45:09.286Z,100111.98
2018-05-25T12:47:35.273Z,100102.06
2018-05-25T12:50:01.222Z,100107.11
2018-05-25T12:52:27.184Z,100092.38
2018-05-25T12:54:53.195Z,100097.53
2018-05-25T12:57:19.179Z,100098.82
2018-05-25T12:59:45.144Z,100107.39
2018-05-25T13:02:11.090Z,100101.69
2018-05-25T13:04:37.074Z,100112.55
2018-05-25T13:07:03.027Z,100101.87
2018-05-25T13:09:28.989Z,100091.14
2018-05-25T13:11:54.956Z,100098.52
2018-05-25T13:14:20.926Z,100095.53
2018-05-25T13:16:46.997Z,100092.22
2018-05-25T13:19:12.981Z,100089.85
2018-05-25T13:21:39.040Z,100086.08
2018-05-25T13:24:05.023Z,100096.25
2018-05-25T13:26:31.059Z,100091.95
2018-05-25T13:28:57.046Z,100086.60
2018-05-25T13:31:22.990Z,100094.45
2018-05-25T13:33:48.952Z,100089.25
2018-05-25T13:36:14.896Z,100079.70
2018-05-25T13:38:40.880Z,100088.75
2018-05-25T13:41:06.840Z,100085.66
2018-05-25T13:43:32.859Z,100088.52
2018-05-25T13:45:58.815Z,100078.45
2018-05-25T13:48:24.812Z,100080.14
2018-05-25T13:50:50.771Z,100069.90
2018-05-25T13:53:16.780Z,100076.14
2018-05-25T13:55:42.751Z,100079.72
2018-05-25T13:58:08.752Z,100075.94
2018-05-25T14:00:34.782Z,100078.95
2018-05-25T14:03:00.753Z,100074.64
2018-05-25T14:05:26.719Z,100076.48
2018-05-25T14:07:52.673Z,100082.67
2018-05-25T14:10:18.710Z,100073.70
2018-05-25T14:12:44.668Z,100076.52
2018-05-25T14:15:10.732Z,100078.16
2018-05-25T14:17:36.773Z,100074.06
2018-05-25T14:20:02.735Z,100085.02
2018-05-25T14:22:28.673Z,100078.00
2018-05-25T14:24:54.660Z,100077.87
2018-05-25T14:27:20.595Z,100072.56
2018-05-25T14:29:46.688Z,100076.84
2018-05-25T14:32:12.699Z,100073.78
2018-05-25T14:34:38.649Z,100074.08
2018-05-25T14:37:04.573Z,100066.69
2018-05-25T14:39:30.540Z,100072.20
2018-05-25T14:41:56.517Z,100063.34
2018-05-25T14:44:22.538Z,100062.84
2018-05-25T14:46:48.944Z,100069.78
2018-05-25T14:49:14.910Z,100072.06
2018-05-25T14:51:40.857Z,100073.49
2018-05-25T14:54:06.806Z,100071.91
2018-05-25T14:56:32.986Z,100074.30
2018-05-25T14:58:59.020Z,100074.78
2018-05-25T15:01:24.974Z,100071.77
2018-05-25T15:03:51.106Z,100077.37
2018-05-25T15:06:17.094Z,100078.31
2018-05-25T15:08:43.081Z,100070.40
2018-05-25T15:11:09.114Z,100073.27
2018-05-25T15:13:35.322Z,100074.87
2018-05-25T15:16:01.472Z,100068.98
2018-05-25T15:18:27.511Z,100065.63
2018-05-25T15:20:53.471Z,100063.06
2018-05-25T15:23:19.437Z,100063.55
2018-05-25T15:28:22.461Z,100066.17
2018-05-25T15:33:21.118Z,100062.05
2018-05-25T15:35:47.213Z,100071.87
2018-05-25T15:38:17.642Z,100062.62
2018-05-25T15:40:44.104Z,100052.03
2018-05-25T15:43:10.179Z,100061.91
2018-05-25T15:45:36.167Z,100060.05
2018-05-25T15:48:02.202Z,100059.24
2018-05-25T15:50:28.332Z,100063.75
2018-05-25T15:52:55.380Z,100066.77
2018-05-25T15:55:21.442Z,100063.84
2018-05-25T15:57:47.585Z,100067.25
2018-05-25T16:00:13.643Z,100061.50
2018-05-25T16:02:39.753Z,100063.18
2018-05-25T16:05:05.773Z,100066.92
2018-05-25T16:07:31.944Z,100069.03
2018-05-25T16:09:57.973Z,100065.45
2018-05-25T16:12:23.959Z,100068.31
2018-05-25T16:14:49.942Z,100069.99
2018-05-25T16:17:15.896Z,100069.64
2018-05-25T16:19:41.902Z,100069.62
2018-05-25T16:22:08.255Z,100073.75
2018-05-25T16:24:34.270Z,100068.91
2018-05-25T16:27:00.233Z,100075.39
2018-05-25T16:29:26.211Z,100072.95
2018-05-25T16:31:52.339Z,100071.97
2018-05-25T16:34:20.123Z,100069.83
2018-05-25T16:36:47.133Z,100080.00
2018-05-25T16:39:13.148Z,100074.28
2018-05-25T16:41:39.260Z,100076.67
2018-05-25T16:44:05.394Z,100077.59
2018-05-25T16:46:31.365Z,100084.70
2018-05-25T16:48:57.779Z,100089.49
2018-05-25T16:51:23.800Z,100084.27
2018-05-25T16:53:50.902Z,100095.59
2018-05-25T16:56:16.948Z,100086.95
2018-05-25T16:58:43.028Z,100081.75
2018-05-25T17:01:09.029Z,100103.23
2018-05-25T17:03:42.152Z,100094.09
2018-05-25T17:06:08.298Z,100100.71
2018-05-25T17:08:34.289Z,100106.67
2018-05-25T17:11:00.872Z,100109.17
2018-05-25T17:13:27.177Z,100109.13
2018-05-25T17:15:56.273Z,100103.91
2018-05-25T17:18:22.440Z,100111.48
2018-05-25T17:20:48.442Z,100112.22
2018-05-25T17:23:14.533Z,100113.09
2018-05-25T17:25:40.554Z,100113.55
2018-05-25T17:28:07.966Z,100117.61
2018-05-25T17:30:34.004Z,100116.27
2018-05-25T17:33:00.001Z,100121.34
2018-05-25T17:35:29.327Z,100127.60
2018-05-25T17:37:55.741Z,100121.53
2018-05-25T17:40:23.788Z,100133.00
2018-05-25T17:42:49.981Z,100121.77
2018-05-25T17:45:16.256Z,100124.37
2018-05-25T17:47:42.250Z,100122.52
2018-05-25T17:50:08.297Z,100126.80
2018-05-25T17:52:34.973Z,100127.12
2018-05-25T17:55:01.985Z,100130.80
2018-05-25T17:57:28.135Z,100122.58
2018-05-25T17:59:54.775Z,100122.27
2018-05-25T18:02:20.858Z,100126.25
2018-05-25T18:04:47.114Z,100129.13
2018-05-25T18:07:13.085Z,100131.52
2018-05-25T18:09:39.279Z,100135.48
2018-05-25T18:12:05.253Z,100133.59
2018-05-25T18:14:31.463Z,100132.02
2018-05-25T18:16:57.415Z,100137.95
2018-05-25T18:19:23.357Z,100134.70
2018-05-25T18:21:50.306Z,100138.19
2018-05-25T18:24:16.443Z,100139.88
2018-05-25T18:26:42.387Z,100140.33
2018-05-25T18:29:08.586Z,100146.31
2018-05-25T18:31:34.814Z,100140.80
2018-05-25T18:34:00.784Z,100137.83
2018-05-25T18:36:26.769Z,100139.48
2018-05-25T18:38:52.747Z,100139.46
2018-05-25T18:41:18.710Z,100133.62
2018-05-25T18:43:44.680Z,100143.59
2018-05-25T18:46:11.617Z,100140.91
2018-05-25T18:48:37.578Z,100140.43
2018-05-25T18:51:03.572Z,100142.37
2018-05-25T18:53:29.546Z,100146.34
2018-05-25T18:55:55.778Z,100143.67
2018-05-25T18:58:21.718Z,100150.99
2018-05-25T19:00:47.673Z,100157.67
2018-05-25T19:03:13.621Z,100160.22
2018-05-25T19:05:39.591Z,100164.53
2018-05-25T19:08:05.562Z,100166.05
2018-05-25T19:10:31.535Z,100176.56
2018-05-25T19:12:57.514Z,100172.77
2018-05-25T19:15:23.463Z,100176.67
2018-05-25T19:17:49.814Z,100180.77
2018-05-25T19:20:15.769Z,100181.28
2018-05-25T19:22:41.709Z,100183.55
2018-05-25T19:25:07.655Z,100189.39
2018-05-25T19:27:33.646Z,100191.00
2018-05-25T19:29:59.605Z,100192.95
2018-05-25T19:32:25.652Z,100195.75
2018-05-25T19:34:51.646Z,100201.48
2018-05-25T19:37:17.630Z,100204.91
2018-05-25T19:39:43.593Z,100207.29
2018-05-25T19:42:09.617Z,100212.38
2018-05-25T19:44:35.578Z,100214.88
2018-05-25T19:47:01.571Z,100219.14
2018-05-25T19:49:27.557Z,100221.75
2018-05-25T19:51:53.537Z,100220.02
2018-05-25T19:54:19.577Z,100217.81
2018-05-25T19:56:45.549Z,100218.30
2018-05-25T19:59:11.521Z,100225.47
2018-05-25T20:01:37.503Z,100227.80
2018-05-25T20:04:03.587Z,100221.86
2018-05-25T20:06:29.491Z,100221.68
2018-05-25T20:08:55.459Z,100217.02
2018-05-25T20:11:21.490Z,100219.49
2018-05-25T20:13:47.496Z,100226.05
2018-05-25T20:16:13.514Z,100222.72
2018-05-25T20:18:39.433Z,100220.67
2018-05-25T20:21:05.449Z,100223.42
2018-05-25T20:23:31.424Z,100225.04
2018-05-25T20:25:57.378Z,100223.10
2018-05-25T20:28:23.376Z,100228.11
2018-05-25T20:30:49.351Z,100227.52
2018-05-25T20:33:15.302Z,100230.63
2018-05-25T20:35:41.252Z,100230.64
2018-05-25T20:38:07.216Z,100224.38
2018-05-25T20:40:33.173Z,100219.37
2018-05-25T20:42:59.173Z,100221.14
2018-05-25T20:45:25.139Z,100224.56
2018-05-25T20:47:51.124Z,100218.98
2018-05-25T20:50:17.130Z,100223.22
2018-05-25T20:52:43.103Z,100221.54
2018-05-25T20:55:09.105Z,100224.75
2018-05-25T20:57:35.049Z,100221.67
2018-05-25T21:00:00.996Z,100226.39
2018-05-25T21:02:26.992Z,100225.59
2018-05-25T21:04:52.923Z,100225.77
2018-05-25T21:07:18.893Z,100229.05
2018-05-25T21:09:44.862Z,100233.05
2018-05-25T21:12:10.829Z,100257.69
2018-05-25T21:14:36.768Z,100258.60
2018-05-25T21:17:02.746Z,100249.89
2018-05-25T21:19:28.762Z,100239.86
2018-05-25T21:21:54.740Z,100241.02
2018-05-25T21:24:20.691Z,100234.41
2018-05-25T21:26:46.670Z,100241.96
2018-05-25T21:29:12.652Z,100248.55
2018-05-25T21:31:38.589Z,100247.23
2018-05-25T21:34:04.573Z,100250.02
2018-05-25T21:36:30.541Z,100257.11
2018-05-25T21:38:56.528Z,100251.95
2018-05-25T21:41:22.502Z,100253.28
2018-05-25T21:43:48.446Z,100252.15
2018-05-25T21:46:14.388Z,100255.14
2018-05-25T21:48:40.334Z,100268.36
2018-05-25T21:51:06.286Z,100272.86
2018-05-25T21:53:32.271Z,100262.38
2018-05-25T21:55:58.230Z,100265.11
2018-05-25T21:58:24.187Z,100268.13
2018-05-25T22:00:50.209Z,100277.94
2018-05-25T22:03:16.168Z,100277.02
2018-05-25T22:05:42.124Z,100274.80
2018-05-25T22:08:08.083Z,100274.61
2018-05-25T22:10:34.017Z,100280.00
2018-05-25T22:12:59.991Z,100283.05
2018-05-25T22:15:26.057Z,100283.84
2018-05-25T22:17:52.062Z,100280.18
2018-05-25T22:20:18.016Z,100278.75
2018-05-25T22:22:43.988Z,100280.67
2018-05-25T22:25:09.949Z,100283.45
2018-05-25T22:27:35.922Z,100276.70
2018-05-25T22:30:01.856Z,100272.81
2018-05-25T22:32:27.820Z,100277.22
2018-05-25T22:34:53.822Z,100280.47
2018-05-25T22:37:19.773Z,100285.10
2018-05-25T22:39:45.734Z,100279.32
2018-05-25T22:42:11.713Z,100284.22
2018-05-25T22:44:37.662Z,100279.35
2018-05-25T22:47:03.602Z,100286.04
2018-05-25T22:49:29.560Z,100279.59
2018-05-25T22:51:55.527Z,100284.07
2018-05-25T22:54:21.501Z,100280.30
2018-05-25T22:56:47.462Z,100279.73
2018-05-25T22:59:13.433Z,100275.95
2018-05-25T23:01:39.396Z,100277.28
2018-05-25T23:04:05.373Z,100277.02
2018-05-25T23:06:31.325Z,100276.60
2018-05-25T23:08:57.306Z,100279.12
2018-05-25T23:11:23.259Z,100283.03
2018-05-25T23:13:49.220Z,100285.39
2018-05-25T23:16:15.178Z,100286.27
2018-05-25T23:18:41.156Z,100290.63
2018-05-25T23:21:07.085Z,100295.25
2018-05-25T23:23:33.012Z,100295.83
2018-05-25T23:25:58.938Z,100293.24
2018-05-25T23:28:24.887Z,100299.41
2018-05-25T23:30:50.827Z,100302.96
2018-05-25T23:33:16.773Z,100306.73
2018-05-25T23:35:42.717Z,100306.77
2018-05-25T23:38:08.672Z,100304.59
2018-05-25T23:40:34.628Z,100298.19
2018-05-25T23:43:00.576Z,100301.63
2018-05-25T23:45:26.543Z,100299.30
2018-05-25T23:47:52.499Z,100297.76
2018-05-25T23:50:18.453Z,100297.11
2018-05-25T23:52:44.381Z,100298.08
2018-05-25T23:55:10.353Z,100295.17
2018-05-25T23:57:36.302Z,100292.24
